sensor_id;sensor_type;location;lat;lon;timestamp;temperature;humidity
33149;DHT22;19506;51.040;3.856;2022-10-16T00:01:15;18.70;99.90
33149;DHT22;19506;51.040;3.856;2022-10-16T00:03:43;18.70;99.90
33149;DHT22;19506;51.040;3.856;2022-10-16T00:06:09;18.70;99.90
33149;DHT22;19506;51.040;3.856;2022-10-16T00:08:36;18.70;99.90
33149;DHT22;19506;51.040;3.856;2022-10-16T00:11:07;18.80;99.90
33149;DHT22;19506;51.040;3.856;2022-10-16T00:13:35;18.70;99.90
33149;DHT22;19506;51.040;3.856;2022-10-16T00:16:02;18.80;99.90
33149;DHT22;19506;51.040;3.856;2022-10-16T00:18:28;18.70;99.90
33149;DHT22;19506;51.040;3.856;2022-10-16T00:20:55;18.70;99.90
33149;DHT22;19506;51.040;3.856;2022-10-16T00:23:21;18.70;99.90
33149;DHT22;19506;51.040;3.856;2022-10-16T00:26:04;18.70;99.90
33149;DHT22;19506;51.040;3.856;2022-10-16T00:28:30;18.70;99.90
33149;DHT22;19506;51.040;3.856;2022-10-16T00:30:57;18.70;99.90
33149;DHT22;19506;51.040;3.856;2022-10-16T00:33:23;18.70;99.90
33149;DHT22;19506;51.040;3.856;2022-10-16T00:35:49;18.70;99.90
33149;DHT22;19506;51.040;3.856;2022-10-16T00:38:15;18.70;99.90
33149;DHT22;19506;51.040;3.856;2022-10-16T00:40:41;18.70;99.90
33149;DHT22;19506;51.040;3.856;2022-10-16T00:46:00;18.70;99.90
33149;DHT22;19506;51.040;3.856;2022-10-16T00:48:26;18.70;99.90
33149;DHT22;19506;51.040;3.856;2022-10-16T00:50:52;18.70;99.90
33149;DHT22;19506;51.040;3.856;2022-10-16T00:53:18;18.70;99.90
33149;DHT22;19506;51.040;3.856;2022-10-16T00:55:44;18.70;99.90
33149;DHT22;19506;51.040;3.856;2022-10-16T00:58:11;18.70;99.90
33149;DHT22;19506;51.040;3.856;2022-10-16T01:00:37;18.70;99.90
33149;DHT22;19506;51.040;3.856;2022-10-16T01:03:27;18.70;99.90
33149;DHT22;19506;51.040;3.856;2022-10-16T01:09:02;18.70;99.90
33149;DHT22;19506;51.040;3.856;2022-10-16T01:11:38;18.70;99.90
33149;DHT22;19506;51.040;3.856;2022-10-16T01:14:17;18.70;99.90
33149;DHT22;19506;51.040;3.856;2022-10-16T01:16:53;18.70;99.90
33149;DHT22;19506;51.040;3.856;2022-10-16T01:22:16;18.70;99.90
33149;DHT22;19506;51.040;3.856;2022-10-16T01:24:48;18.70;99.90
33149;DHT22;19506;51.040;3.856;2022-10-16T01:27:25;18.70;99.90
33149;DHT22;19506;51.040;3.856;2022-10-16T01:30:04;18.70;99.90
33149;DHT22;19506;51.040;3.856;2022-10-16T01:35:18;18.60;99.90
33149;DHT22;19506;51.040;3.856;2022-10-16T01:40:39;18.60;99.90
33149;DHT22;19506;51.040;3.856;2022-10-16T01:43:14;18.60;99.90
33149;DHT22;19506;51.040;3.856;2022-10-16T01:45:41;18.60;99.90
33149;DHT22;19506;51.040;3.856;2022-10-16T01:48:09;18.60;99.90
33149;DHT22;19506;51.040;3.856;2022-10-16T01:50:39;18.60;99.90
33149;DHT22;19506;51.040;3.856;2022-10-16T01:53:07;18.60;99.90
33149;DHT22;19506;51.040;3.856;2022-10-16T01:55:38;18.60;99.90
33149;DHT22;19506;51.040;3.856;2022-10-16T01:58:08;18.60;99.90
33149;DHT22;19506;51.040;3.856;2022-10-16T02:00:38;18.60;99.90
33149;DHT22;19506;51.040;3.856;2022-10-16T02:03:05;18.60;99.90
33149;DHT22;19506;51.040;3.856;2022-10-16T02:05:39;18.60;99.90
33149;DHT22;19506;51.040;3.856;2022-10-16T02:08:06;18.60;99.90
33149;DHT22;19506;51.040;3.856;2022-10-16T02:10:34;18.60;99.90
33149;DHT22;19506;51.040;3.856;2022-10-16T02:13:08;18.60;99.90
33149;DHT22;19506;51.040;3.856;2022-10-16T02:15:35;18.60;99.90
33149;DHT22;19506;51.040;3.856;2022-10-16T02:18:03;18.60;99.90
33149;DHT22;19506;51.040;3.856;2022-10-16T02:20:34;18.60;99.90
33149;DHT22;19506;51.040;3.856;2022-10-16T02:23:03;18.60;99.90
33149;DHT22;19506;51.040;3.856;2022-10-16T02:25:35;18.60;99.90
33149;DHT22;19506;51.040;3.856;2022-10-16T02:30:36;18.60;99.90
33149;DHT22;19506;51.040;3.856;2022-10-16T02:33:06;18.50;99.90
33149;DHT22;19506;51.040;3.856;2022-10-16T02:35:33;18.50;99.90
33149;DHT22;19506;51.040;3.856;2022-10-16T02:38:00;18.60;99.90
33149;DHT22;19506;51.040;3.856;2022-10-16T02:40:26;18.50;99.90
33149;DHT22;19506;51.040;3.856;2022-10-16T02:42:54;18.50;99.90
33149;DHT22;19506;51.040;3.856;2022-10-16T02:45:20;18.50;99.90
33149;DHT22;19506;51.040;3.856;2022-10-16T02:47:46;18.50;99.90
33149;DHT22;19506;51.040;3.856;2022-10-16T02:50:12;18.50;99.90
33149;DHT22;19506;51.040;3.856;2022-10-16T02:52:37;18.50;99.90
33149;DHT22;19506;51.040;3.856;2022-10-16T02:55:03;18.50;99.90
33149;DHT22;19506;51.040;3.856;2022-10-16T02:57:29;18.50;99.90
33149;DHT22;19506;51.040;3.856;2022-10-16T02:59:55;18.50;99.90
33149;DHT22;19506;51.040;3.856;2022-10-16T03:02:20;18.50;99.90
33149;DHT22;19506;51.040;3.856;2022-10-16T03:04:46;18.50;99.90
33149;DHT22;19506;51.040;3.856;2022-10-16T03:07:11;18.50;99.90
33149;DHT22;19506;51.040;3.856;2022-10-16T03:09:37;18.50;99.90
33149;DHT22;19506;51.040;3.856;2022-10-16T03:12:03;18.50;99.90
33149;DHT22;19506;51.040;3.856;2022-10-16T03:14:29;18.50;99.90
33149;DHT22;19506;51.040;3.856;2022-10-16T03:16:54;18.50;99.90
33149;DHT22;19506;51.040;3.856;2022-10-16T03:19:20;18.50;99.90
33149;DHT22;19506;51.040;3.856;2022-10-16T03:21:46;18.50;99.90
33149;DHT22;19506;51.040;3.856;2022-10-16T03:24:11;18.50;99.90
33149;DHT22;19506;51.040;3.856;2022-10-16T03:26:37;18.50;99.90
33149;DHT22;19506;51.040;3.856;2022-10-16T03:29:03;18.50;99.90
33149;DHT22;19506;51.040;3.856;2022-10-16T03:31:30;18.50;99.90
33149;DHT22;19506;51.040;3.856;2022-10-16T03:33:56;18.50;99.90
33149;DHT22;19506;51.040;3.856;2022-10-16T03:36:21;18.50;99.90
33149;DHT22;19506;51.040;3.856;2022-10-16T03:38:47;18.50;99.90
33149;DHT22;19506;51.040;3.856;2022-10-16T03:41:12;18.50;99.90
33149;DHT22;19506;51.040;3.856;2022-10-16T03:43:38;18.50;99.90
33149;DHT22;19506;51.040;3.856;2022-10-16T03:46:04;18.50;99.90
33149;DHT22;19506;51.040;3.856;2022-10-16T03:48:30;18.50;99.90
33149;DHT22;19506;51.040;3.856;2022-10-16T03:50:57;18.50;99.90
33149;DHT22;19506;51.040;3.856;2022-10-16T03:53:23;18.50;99.90
33149;DHT22;19506;51.040;3.856;2022-10-16T03:55:49;18.50;99.90
33149;DHT22;19506;51.040;3.856;2022-10-16T03:58:15;18.50;99.90
33149;DHT22;19506;51.040;3.856;2022-10-16T04:00:44;18.50;99.90
33149;DHT22;19506;51.040;3.856;2022-10-16T04:03:11;18.50;99.90
33149;DHT22;19506;51.040;3.856;2022-10-16T04:05:36;18.40;99.90
33149;DHT22;19506;51.040;3.856;2022-10-16T04:08:02;18.50;99.90
33149;DHT22;19506;51.040;3.856;2022-10-16T04:10:28;18.40;99.90
33149;DHT22;19506;51.040;3.856;2022-10-16T04:12:54;18.40;99.90
33149;DHT22;19506;51.040;3.856;2022-10-16T04:15:24;18.50;99.90
33149;DHT22;19506;51.040;3.856;2022-10-16T04:17:50;18.40;99.90
33149;DHT22;19506;51.040;3.856;2022-10-16T04:20:16;18.40;99.90
33149;DHT22;19506;51.040;3.856;2022-10-16T04:22:42;18.40;99.90
33149;DHT22;19506;51.040;3.856;2022-10-16T04:25:08;18.40;99.90
33149;DHT22;19506;51.040;3.856;2022-10-16T04:27:33;18.40;99.90
33149;DHT22;19506;51.040;3.856;2022-10-16T04:30:00;18.50;99.90
33149;DHT22;19506;51.040;3.856;2022-10-16T04:32:26;18.50;99.90
33149;DHT22;19506;51.040;3.856;2022-10-16T04:34:52;18.40;99.90
33149;DHT22;19506;51.040;3.856;2022-10-16T04:37:18;18.40;99.90
33149;DHT22;19506;51.040;3.856;2022-10-16T04:39:44;18.40;99.90
33149;DHT22;19506;51.040;3.856;2022-10-16T04:42:10;18.40;99.90
33149;DHT22;19506;51.040;3.856;2022-10-16T04:44:36;18.40;99.90
33149;DHT22;19506;51.040;3.856;2022-10-16T04:47:02;18.40;99.90
33149;DHT22;19506;51.040;3.856;2022-10-16T04:49:28;18.40;99.90
33149;DHT22;19506;51.040;3.856;2022-10-16T04:51:53;18.40;99.90
33149;DHT22;19506;51.040;3.856;2022-10-16T04:54:19;18.40;99.90
33149;DHT22;19506;51.040;3.856;2022-10-16T04:56:45;18.40;99.90
33149;DHT22;19506;51.040;3.856;2022-10-16T04:59:16;18.50;99.90
33149;DHT22;19506;51.040;3.856;2022-10-16T05:01:43;18.50;99.90
33149;DHT22;19506;51.040;3.856;2022-10-16T05:04:09;18.50;99.90
33149;DHT22;19506;51.040;3.856;2022-10-16T05:06:34;18.40;99.90
33149;DHT22;19506;51.040;3.856;2022-10-16T05:09:00;18.40;99.90
33149;DHT22;19506;51.040;3.856;2022-10-16T05:11:26;18.40;99.90
33149;DHT22;19506;51.040;3.856;2022-10-16T05:13:51;18.40;99.90
33149;DHT22;19506;51.040;3.856;2022-10-16T05:16:17;18.40;99.90
33149;DHT22;19506;51.040;3.856;2022-10-16T05:18:43;18.40;99.90
33149;DHT22;19506;51.040;3.856;2022-10-16T05:21:08;18.40;99.90
33149;DHT22;19506;51.040;3.856;2022-10-16T05:23:34;18.40;99.90
33149;DHT22;19506;51.040;3.856;2022-10-16T05:26:00;18.40;99.90
33149;DHT22;19506;51.040;3.856;2022-10-16T05:28:27;18.40;99.90
33149;DHT22;19506;51.040;3.856;2022-10-16T05:30:53;18.40;99.90
33149;DHT22;19506;51.040;3.856;2022-10-16T05:33:20;18.40;99.90
33149;DHT22;19506;51.040;3.856;2022-10-16T05:35:46;18.40;99.90
33149;DHT22;19506;51.040;3.856;2022-10-16T05:38:12;18.40;99.90
33149;DHT22;19506;51.040;3.856;2022-10-16T05:40:38;18.50;99.90
33149;DHT22;19506;51.040;3.856;2022-10-16T05:43:03;18.60;99.90
33149;DHT22;19506;51.040;3.856;2022-10-16T05:45:29;18.60;99.90
33149;DHT22;19506;51.040;3.856;2022-10-16T05:47:55;18.60;99.90
33149;DHT22;19506;51.040;3.856;2022-10-16T05:50:20;18.70;99.90
33149;DHT22;19506;51.040;3.856;2022-10-16T05:52:46;18.70;99.90
33149;DHT22;19506;51.040;3.856;2022-10-16T05:55:12;18.80;99.90
33149;DHT22;19506;51.040;3.856;2022-10-16T05:57:37;18.80;99.90
33149;DHT22;19506;51.040;3.856;2022-10-16T06:00:04;18.90;99.90
33149;DHT22;19506;51.040;3.856;2022-10-16T06:02:30;18.90;99.90
33149;DHT22;19506;51.040;3.856;2022-10-16T06:04:56;18.90;99.90
33149;DHT22;19506;51.040;3.856;2022-10-16T06:07:22;19.00;99.90
33149;DHT22;19506;51.040;3.856;2022-10-16T06:09:52;19.00;99.90
33149;DHT22;19506;51.040;3.856;2022-10-16T06:12:18;19.00;99.90
33149;DHT22;19506;51.040;3.856;2022-10-16T06:14:45;19.00;99.90
33149;DHT22;19506;51.040;3.856;2022-10-16T06:17:13;19.00;99.90
33149;DHT22;19506;51.040;3.856;2022-10-16T06:19:39;19.10;99.90
33149;DHT22;19506;51.040;3.856;2022-10-16T06:22:05;19.10;99.90
33149;DHT22;19506;51.040;3.856;2022-10-16T06:24:31;19.20;99.90
33149;DHT22;19506;51.040;3.856;2022-10-16T06:26:57;19.20;99.90
33149;DHT22;19506;51.040;3.856;2022-10-16T06:29:22;19.20;99.90
33149;DHT22;19506;51.040;3.856;2022-10-16T06:31:48;19.20;99.90
33149;DHT22;19506;51.040;3.856;2022-10-16T06:34:14;19.30;99.90
33149;DHT22;19506;51.040;3.856;2022-10-16T06:36:40;19.20;99.90
33149;DHT22;19506;51.040;3.856;2022-10-16T06:39:06;19.30;99.90
33149;DHT22;19506;51.040;3.856;2022-10-16T06:41:33;19.30;99.90
33149;DHT22;19506;51.040;3.856;2022-10-16T06:43:59;19.40;99.90
33149;DHT22;19506;51.040;3.856;2022-10-16T06:46:26;19.30;99.90
33149;DHT22;19506;51.040;3.856;2022-10-16T06:48:52;19.30;99.90
33149;DHT22;19506;51.040;3.856;2022-10-16T06:51:23;19.30;99.90
33149;DHT22;19506;51.040;3.856;2022-10-16T06:53:54;19.20;99.90
33149;DHT22;19506;51.040;3.856;2022-10-16T06:56:23;19.10;99.90
33149;DHT22;19506;51.040;3.856;2022-10-16T06:58:50;19.00;99.90
33149;DHT22;19506;51.040;3.856;2022-10-16T07:01:17;18.80;99.90
33149;DHT22;19506;51.040;3.856;2022-10-16T07:03:45;18.60;99.90
33149;DHT22;19506;51.040;3.856;2022-10-16T07:06:13;18.60;99.90
33149;DHT22;19506;51.040;3.856;2022-10-16T07:08:41;18.50;99.90
33149;DHT22;19506;51.040;3.856;2022-10-16T07:11:10;18.30;99.90
33149;DHT22;19506;51.040;3.856;2022-10-16T07:13:37;18.20;99.90
33149;DHT22;19506;51.040;3.856;2022-10-16T07:16:12;18.30;99.90
33149;DHT22;19506;51.040;3.856;2022-10-16T07:18:38;18.20;99.90
33149;DHT22;19506;51.040;3.856;2022-10-16T07:21:10;18.10;99.90
33149;DHT22;19506;51.040;3.856;2022-10-16T07:23:36;18.20;99.90
33149;DHT22;19506;51.040;3.856;2022-10-16T07:26:03;18.40;99.90
33149;DHT22;19506;51.040;3.856;2022-10-16T07:28:28;18.60;99.90
33149;DHT22;19506;51.040;3.856;2022-10-16T07:30:54;18.70;99.90
33149;DHT22;19506;51.040;3.856;2022-10-16T07:33:21;18.80;99.90
33149;DHT22;19506;51.040;3.856;2022-10-16T07:35:51;18.80;99.90
33149;DHT22;19506;51.040;3.856;2022-10-16T07:38:17;18.80;99.90
33149;DHT22;19506;51.040;3.856;2022-10-16T07:40:43;18.80;99.90
33149;DHT22;19506;51.040;3.856;2022-10-16T07:43:09;18.70;99.90
33149;DHT22;19506;51.040;3.856;2022-10-16T07:45:34;18.70;99.90
33149;DHT22;19506;51.040;3.856;2022-10-16T07:48:00;18.70;99.90
33149;DHT22;19506;51.040;3.856;2022-10-16T07:50:26;18.70;99.90
33149;DHT22;19506;51.040;3.856;2022-10-16T07:52:52;18.60;99.90
33149;DHT22;19506;51.040;3.856;2022-10-16T07:55:17;18.60;99.90
33149;DHT22;19506;51.040;3.856;2022-10-16T07:57:43;18.60;99.90
33149;DHT22;19506;51.040;3.856;2022-10-16T08:00:09;18.70;99.90
33149;DHT22;19506;51.040;3.856;2022-10-16T08:02:39;18.80;99.90
33149;DHT22;19506;51.040;3.856;2022-10-16T08:05:06;18.80;99.90
33149;DHT22;19506;51.040;3.856;2022-10-16T08:07:32;18.80;99.90
33149;DHT22;19506;51.040;3.856;2022-10-16T08:09:58;18.70;99.90
33149;DHT22;19506;51.040;3.856;2022-10-16T08:12:27;18.70;99.90
33149;DHT22;19506;51.040;3.856;2022-10-16T08:14:52;18.70;99.90
33149;DHT22;19506;51.040;3.856;2022-10-16T08:17:18;18.70;99.90
33149;DHT22;19506;51.040;3.856;2022-10-16T08:19:45;18.70;99.90
33149;DHT22;19506;51.040;3.856;2022-10-16T08:22:11;18.60;99.90
33149;DHT22;19506;51.040;3.856;2022-10-16T08:24:36;18.70;99.90
33149;DHT22;19506;51.040;3.856;2022-10-16T08:27:02;18.70;99.90
33149;DHT22;19506;51.040;3.856;2022-10-16T08:29:28;18.70;99.90
33149;DHT22;19506;51.040;3.856;2022-10-16T08:31:54;18.70;99.90
33149;DHT22;19506;51.040;3.856;2022-10-16T08:34:20;18.60;99.90
33149;DHT22;19506;51.040;3.856;2022-10-16T08:36:46;18.50;99.90
33149;DHT22;19506;51.040;3.856;2022-10-16T08:39:11;18.40;99.90
33149;DHT22;19506;51.040;3.856;2022-10-16T08:47:02;18.60;99.90
33149;DHT22;19506;51.040;3.856;2022-10-16T08:49:31;18.70;99.90
33149;DHT22;19506;51.040;3.856;2022-10-16T08:51:57;18.80;99.90
33149;DHT22;19506;51.040;3.856;2022-10-16T08:54:38;18.90;99.90
33149;DHT22;19506;51.040;3.856;2022-10-16T08:57:11;18.90;99.90
33149;DHT22;19506;51.040;3.856;2022-10-16T08:59:37;19.00;99.90
33149;DHT22;19506;51.040;3.856;2022-10-16T09:08:08;19.10;99.90
33149;DHT22;19506;51.040;3.856;2022-10-16T09:10:39;19.10;99.90
33149;DHT22;19506;51.040;3.856;2022-10-16T09:16:10;19.10;99.90
33149;DHT22;19506;51.040;3.856;2022-10-16T09:18:44;19.10;99.90
33149;DHT22;19506;51.040;3.856;2022-10-16T09:21:23;19.10;99.90
33149;DHT22;19506;51.040;3.856;2022-10-16T09:23:50;19.10;99.90
33149;DHT22;19506;51.040;3.856;2022-10-16T09:26:16;19.10;99.90
33149;DHT22;19506;51.040;3.856;2022-10-16T09:28:43;19.10;99.90
33149;DHT22;19506;51.040;3.856;2022-10-16T09:31:15;19.20;99.90
33149;DHT22;19506;51.040;3.856;2022-10-16T09:33:41;19.20;99.90
33149;DHT22;19506;51.040;3.856;2022-10-16T09:36:08;19.20;99.90
33149;DHT22;19506;51.040;3.856;2022-10-16T09:38:36;19.20;99.90
33149;DHT22;19506;51.040;3.856;2022-10-16T09:43:49;19.30;99.90
33149;DHT22;19506;51.040;3.856;2022-10-16T09:46:36;19.30;99.90
33149;DHT22;19506;51.040;3.856;2022-10-16T09:49:04;19.30;99.90
33149;DHT22;19506;51.040;3.856;2022-10-16T09:51:33;19.40;99.90
33149;DHT22;19506;51.040;3.856;2022-10-16T09:54:21;19.40;99.90
33149;DHT22;19506;51.040;3.856;2022-10-16T09:56:47;19.40;99.90
33149;DHT22;19506;51.040;3.856;2022-10-16T09:59:21;19.50;99.90
33149;DHT22;19506;51.040;3.856;2022-10-16T10:01:55;19.50;99.90
33149;DHT22;19506;51.040;3.856;2022-10-16T10:04:25;19.50;99.90
33149;DHT22;19506;51.040;3.856;2022-10-16T10:06:55;19.60;99.90
33149;DHT22;19506;51.040;3.856;2022-10-16T10:11:56;19.70;99.90
33149;DHT22;19506;51.040;3.856;2022-10-16T10:14:30;19.70;99.90
33149;DHT22;19506;51.040;3.856;2022-10-16T10:22:31;19.30;99.90
33149;DHT22;19506;51.040;3.856;2022-10-16T10:25:18;18.90;99.90
33149;DHT22;19506;51.040;3.856;2022-10-16T10:30:42;18.60;99.90
33149;DHT22;19506;51.040;3.856;2022-10-16T10:33:28;18.40;99.90
33149;DHT22;19506;51.040;3.856;2022-10-16T10:38:59;18.40;99.90
33149;DHT22;19506;51.040;3.856;2022-10-16T10:46:57;19.00;99.90
33149;DHT22;19506;51.040;3.856;2022-10-16T11:01:18;19.60;99.90
33149;DHT22;19506;51.040;3.856;2022-10-16T11:09:20;19.60;99.90
33149;DHT22;19506;51.040;3.856;2022-10-16T11:11:54;19.70;99.90
33149;DHT22;19506;51.040;3.856;2022-10-16T11:22:33;20.10;99.90
33149;DHT22;19506;51.040;3.856;2022-10-16T11:30:29;20.40;99.90
33149;DHT22;19506;51.040;3.856;2022-10-16T11:38:48;20.30;99.90
33149;DHT22;19506;51.040;3.856;2022-10-16T11:44:02;20.80;99.90
33149;DHT22;19506;51.040;3.856;2022-10-16T11:46:31;20.80;99.90
33149;DHT22;19506;51.040;3.856;2022-10-16T11:51:41;21.00;99.90
33149;DHT22;19506;51.040;3.856;2022-10-16T11:54:24;21.10;99.90
33149;DHT22;19506;51.040;3.856;2022-10-16T11:56:53;21.20;99.90
33149;DHT22;19506;51.040;3.856;2022-10-16T12:08:03;22.30;99.90
33149;DHT22;19506;51.040;3.856;2022-10-16T12:10:32;23.00;99.90
33149;DHT22;19506;51.040;3.856;2022-10-16T12:13:03;23.20;99.90
33149;DHT22;19506;51.040;3.856;2022-10-16T12:15:32;23.70;99.90
33149;DHT22;19506;51.040;3.856;2022-10-16T12:17:59;24.10;99.90
33149;DHT22;19506;51.040;3.856;2022-10-16T12:23:02;24.60;99.90
33149;DHT22;19506;51.040;3.856;2022-10-16T12:25:30;24.80;99.90
33149;DHT22;19506;51.040;3.856;2022-10-16T12:30:29;25.20;99.90
33149;DHT22;19506;51.040;3.856;2022-10-16T12:32:57;25.40;99.90
33149;DHT22;19506;51.040;3.856;2022-10-16T12:35:27;25.50;99.90
33149;DHT22;19506;51.040;3.856;2022-10-16T12:37:54;25.70;99.90
33149;DHT22;19506;51.040;3.856;2022-10-16T12:40:32;25.70;99.90
33149;DHT22;19506;51.040;3.856;2022-10-16T12:42:58;24.60;99.90
33149;DHT22;19506;51.040;3.856;2022-10-16T12:45:31;23.70;99.90
33149;DHT22;19506;51.040;3.856;2022-10-16T12:47:59;23.10;99.90
33149;DHT22;19506;51.040;3.856;2022-10-16T12:50:34;22.90;99.90
33149;DHT22;19506;51.040;3.856;2022-10-16T12:53:01;22.70;99.90
33149;DHT22;19506;51.040;3.856;2022-10-16T12:55:33;22.60;99.90
33149;DHT22;19506;51.040;3.856;2022-10-16T13:00:35;22.30;99.90
33149;DHT22;19506;51.040;3.856;2022-10-16T13:18:18;22.00;99.90
33149;DHT22;19506;51.040;3.856;2022-10-16T13:25:24;21.70;99.90
33149;DHT22;19506;51.040;3.856;2022-10-16T13:27:56;21.70;99.90
33149;DHT22;19506;51.040;3.856;2022-10-16T13:30:26;21.70;99.90
33149;DHT22;19506;51.040;3.856;2022-10-16T13:35:55;21.60;99.90
33149;DHT22;19506;51.040;3.856;2022-10-16T13:38:26;21.60;99.90
33149;DHT22;19506;51.040;3.856;2022-10-16T13:40:58;21.50;99.90
33149;DHT22;19506;51.040;3.856;2022-10-16T13:43:32;21.60;99.90
33149;DHT22;19506;51.040;3.856;2022-10-16T13:46:02;21.60;99.90
33149;DHT22;19506;51.040;3.856;2022-10-16T13:48:29;21.60;99.90
33149;DHT22;19506;51.040;3.856;2022-10-16T13:51:20;21.60;99.90
33149;DHT22;19506;51.040;3.856;2022-10-16T13:53:45;21.60;99.90
33149;DHT22;19506;51.040;3.856;2022-10-16T13:56:14;21.50;99.90
33149;DHT22;19506;51.040;3.856;2022-10-16T13:58:40;21.50;99.90
33149;DHT22;19506;51.040;3.856;2022-10-16T14:01:28;21.40;99.90
33149;DHT22;19506;51.040;3.856;2022-10-16T14:04:04;21.30;99.90
33149;DHT22;19506;51.040;3.856;2022-10-16T14:06:31;21.30;99.90
33149;DHT22;19506;51.040;3.856;2022-10-16T14:09:05;21.20;99.90
33149;DHT22;19506;51.040;3.856;2022-10-16T14:11:32;21.20;99.90
33149;DHT22;19506;51.040;3.856;2022-10-16T14:13:59;21.20;99.90
33149;DHT22;19506;51.040;3.856;2022-10-16T14:16:28;21.20;99.90
33149;DHT22;19506;51.040;3.856;2022-10-16T14:19:04;21.30;99.90
33149;DHT22;19506;51.040;3.856;2022-10-16T14:21:33;21.30;99.90
33149;DHT22;19506;51.040;3.856;2022-10-16T14:23:59;21.30;99.90
33149;DHT22;19506;51.040;3.856;2022-10-16T14:26:28;21.30;99.90
33149;DHT22;19506;51.040;3.856;2022-10-16T14:29:14;21.30;99.90
33149;DHT22;19506;51.040;3.856;2022-10-16T14:31:41;21.20;99.90
33149;DHT22;19506;51.040;3.856;2022-10-16T14:34:24;21.30;99.90
33149;DHT22;19506;51.040;3.856;2022-10-16T14:36:50;21.30;99.90
33149;DHT22;19506;51.040;3.856;2022-10-16T14:39:23;21.30;99.90
33149;DHT22;19506;51.040;3.856;2022-10-16T14:41:52;21.30;99.90
33149;DHT22;19506;51.040;3.856;2022-10-16T14:44:18;21.30;99.90
33149;DHT22;19506;51.040;3.856;2022-10-16T14:46:45;21.20;99.90
33149;DHT22;19506;51.040;3.856;2022-10-16T14:51:38;21.20;99.90
33149;DHT22;19506;51.040;3.856;2022-10-16T14:54:08;21.10;99.90
33149;DHT22;19506;51.040;3.856;2022-10-16T14:59:36;21.10;99.90
33149;DHT22;19506;51.040;3.856;2022-10-16T15:02:32;21.00;99.90
33149;DHT22;19506;51.040;3.856;2022-10-16T15:05:16;20.90;99.90
33149;DHT22;19506;51.040;3.856;2022-10-16T15:07:43;20.90;99.90
33149;DHT22;19506;51.040;3.856;2022-10-16T15:10:09;20.80;99.90
33149;DHT22;19506;51.040;3.856;2022-10-16T15:12:35;20.70;99.90
33149;DHT22;19506;51.040;3.856;2022-10-16T15:15:01;20.70;99.90
33149;DHT22;19506;51.040;3.856;2022-10-16T15:17:27;20.70;99.90
33149;DHT22;19506;51.040;3.856;2022-10-16T15:19:53;20.70;99.90
33149;DHT22;19506;51.040;3.856;2022-10-16T15:22:18;20.70;99.90
33149;DHT22;19506;51.040;3.856;2022-10-16T15:24:44;20.70;99.90
33149;DHT22;19506;51.040;3.856;2022-10-16T15:27:10;20.70;99.90
33149;DHT22;19506;51.040;3.856;2022-10-16T15:29:35;20.70;99.90
33149;DHT22;19506;51.040;3.856;2022-10-16T15:32:01;20.70;99.90
33149;DHT22;19506;51.040;3.856;2022-10-16T15:34:27;20.70;99.90
33149;DHT22;19506;51.040;3.856;2022-10-16T15:36:52;20.70;99.90
33149;DHT22;19506;51.040;3.856;2022-10-16T15:39:20;20.70;99.90
33149;DHT22;19506;51.040;3.856;2022-10-16T15:41:47;20.70;99.90
33149;DHT22;19506;51.040;3.856;2022-10-16T15:44:16;20.60;99.90
33149;DHT22;19506;51.040;3.856;2022-10-16T15:46:42;20.50;99.90
33149;DHT22;19506;51.040;3.856;2022-10-16T15:49:08;20.60;99.90
33149;DHT22;19506;51.040;3.856;2022-10-16T15:51:38;20.50;99.90
33149;DHT22;19506;51.040;3.856;2022-10-16T15:54:04;20.50;99.90
33149;DHT22;19506;51.040;3.856;2022-10-16T15:56:30;20.50;99.90
33149;DHT22;19506;51.040;3.856;2022-10-16T15:58:59;20.40;99.90
33149;DHT22;19506;51.040;3.856;2022-10-16T16:01:25;20.40;99.90
33149;DHT22;19506;51.040;3.856;2022-10-16T16:03:54;20.40;99.90
33149;DHT22;19506;51.040;3.856;2022-10-16T16:06:20;20.40;99.90
33149;DHT22;19506;51.040;3.856;2022-10-16T16:08:46;20.30;99.90
33149;DHT22;19506;51.040;3.856;2022-10-16T16:11:14;20.30;99.90
33149;DHT22;19506;51.040;3.856;2022-10-16T16:13:41;20.30;99.90
33149;DHT22;19506;51.040;3.856;2022-10-16T16:16:08;20.30;99.90
33149;DHT22;19506;51.040;3.856;2022-10-16T16:18:34;20.30;99.90
33149;DHT22;19506;51.040;3.856;2022-10-16T16:21:00;20.30;99.90
33149;DHT22;19506;51.040;3.856;2022-10-16T16:23:26;20.30;99.90
33149;DHT22;19506;51.040;3.856;2022-10-16T16:26:12;20.30;99.90
33149;DHT22;19506;51.040;3.856;2022-10-16T16:28:39;20.20;99.90
33149;DHT22;19506;51.040;3.856;2022-10-16T16:31:05;20.30;99.90
33149;DHT22;19506;51.040;3.856;2022-10-16T16:33:31;20.30;99.90
33149;DHT22;19506;51.040;3.856;2022-10-16T16:36:02;20.30;99.90
33149;DHT22;19506;51.040;3.856;2022-10-16T16:38:28;20.20;99.90
33149;DHT22;19506;51.040;3.856;2022-10-16T16:40:54;20.30;99.90
33149;DHT22;19506;51.040;3.856;2022-10-16T16:43:27;20.30;99.90
33149;DHT22;19506;51.040;3.856;2022-10-16T16:45:54;20.30;99.90
33149;DHT22;19506;51.040;3.856;2022-10-16T16:48:20;20.30;99.90
33149;DHT22;19506;51.040;3.856;2022-10-16T16:50:46;20.30;99.90
33149;DHT22;19506;51.040;3.856;2022-10-16T16:53:12;20.30;99.90
33149;DHT22;19506;51.040;3.856;2022-10-16T16:55:37;20.40;99.90
33149;DHT22;19506;51.040;3.856;2022-10-16T16:58:04;20.40;99.90
33149;DHT22;19506;51.040;3.856;2022-10-16T17:00:30;20.40;99.90
33149;DHT22;19506;51.040;3.856;2022-10-16T17:02:56;20.40;99.90
33149;DHT22;19506;51.040;3.856;2022-10-16T17:05:22;20.50;99.90
33149;DHT22;19506;51.040;3.856;2022-10-16T17:07:48;20.50;99.90
33149;DHT22;19506;51.040;3.856;2022-10-16T17:10:13;20.50;99.90
33149;DHT22;19506;51.040;3.856;2022-10-16T17:12:39;20.60;99.90
33149;DHT22;19506;51.040;3.856;2022-10-16T17:15:05;20.60;99.90
33149;DHT22;19506;51.040;3.856;2022-10-16T17:17:31;20.60;99.90
33149;DHT22;19506;51.040;3.856;2022-10-16T17:19:57;20.60;99.90
33149;DHT22;19506;51.040;3.856;2022-10-16T17:22:22;20.60;99.90
33149;DHT22;19506;51.040;3.856;2022-10-16T17:24:49;20.60;99.90
33149;DHT22;19506;51.040;3.856;2022-10-16T17:27:17;20.60;99.90
33149;DHT22;19506;51.040;3.856;2022-10-16T17:29:43;20.60;99.90
33149;DHT22;19506;51.040;3.856;2022-10-16T17:32:09;20.60;99.90
33149;DHT22;19506;51.040;3.856;2022-10-16T17:34:35;20.60;99.90
33149;DHT22;19506;51.040;3.856;2022-10-16T17:37:01;20.70;99.90
33149;DHT22;19506;51.040;3.856;2022-10-16T17:39:26;20.70;99.90
33149;DHT22;19506;51.040;3.856;2022-10-16T17:41:52;20.70;99.90
33149;DHT22;19506;51.040;3.856;2022-10-16T17:44:18;20.70;99.90
33149;DHT22;19506;51.040;3.856;2022-10-16T17:46:52;20.70;99.90
33149;DHT22;19506;51.040;3.856;2022-10-16T17:49:19;20.70;99.90
33149;DHT22;19506;51.040;3.856;2022-10-16T17:51:44;20.70;99.90
33149;DHT22;19506;51.040;3.856;2022-10-16T17:54:11;20.70;99.90
33149;DHT22;19506;51.040;3.856;2022-10-16T17:56:38;20.70;99.90